sensor_id;sensor_type;location;lat;lon;timestamp;P1;durP1;ratioP1;P2;durP2;ratioP2
10120;SDS011;5100;45.176;5.714;2022-11-20T00:01:06;3.90;;;2.33;;
10120;SDS011;5100;45.176;5.714;2022-11-20T00:03:38;3.33;;;2.40;;
10120;SDS011;5100;45.176;5.714;2022-11-20T00:06:05;4.07;;;2.40;;
10120;SDS011;5100;45.176;5.714;2022-11-20T00:08:36;2.27;;;2.07;;
10120;SDS011;5100;45.176;5.714;2022-11-20T00:11:03;4.50;;;2.13;;
10120;SDS011;5100;45.176;5.714;2022-11-20T00:13:30;4.93;;;2.60;;
10120;SDS011;5100;45.176;5.714;2022-11-20T00:15:57;3.23;;;2.47;;
10120;SDS011;5100;45.176;5.714;2022-11-20T00:18:24;2.80;;;2.33;;
10120;SDS011;5100;45.176;5.714;2022-11-20T00:20:51;2.80;;;2.13;;
10120;SDS011;5100;45.176;5.714;2022-11-20T00:23:17;4.03;;;2.00;;
10120;SDS011;5100;45.176;5.714;2022-11-20T00:25:43;5.80;;;2.50;;
10120;SDS011;5100;45.176;5.714;2022-11-20T00:28:09;3.93;;;2.63;;
10120;SDS011;5100;45.176;5.714;2022-11-20T00:30:35;3.13;;;2.30;;
10120;SDS011;5100;45.176;5.714;2022-11-20T00:33:02;2.43;;;2.23;;
10120;SDS011;5100;45.176;5.714;2022-11-20T00:35:28;3.03;;;2.30;;
10120;SDS011;5100;45.176;5.714;2022-11-20T00:37:54;3.73;;;2.37;;
10120;SDS011;5100;45.176;5.714;2022-11-20T00:40:20;3.73;;;2.50;;
10120;SDS011;5100;45.176;5.714;2022-11-20T00:42:46;3.90;;;2.70;;
10120;SDS011;5100;45.176;5.714;2022-11-20T00:45:12;4.03;;;2.70;;
10120;SDS011;5100;45.176;5.714;2022-11-20T00:47:38;3.30;;;2.70;;
10120;SDS011;5100;45.176;5.714;2022-11-20T00:50:04;3.03;;;2.50;;
10120;SDS011;5100;45.176;5.714;2022-11-20T00:52:30;3.97;;;2.57;;
10120;SDS011;5100;45.176;5.714;2022-11-20T00:54:56;2.63;;;2.43;;
10120;SDS011;5100;45.176;5.714;2022-11-20T00:57:22;2.80;;;2.50;;
10120;SDS011;5100;45.176;5.714;2022-11-20T00:59:48;3.03;;;2.57;;
10120;SDS011;5100;45.176;5.714;2022-11-20T01:02:15;3.97;;;2.47;;
10120;SDS011;5100;45.176;5.714;2022-11-20T01:04:42;3.60;;;2.80;;
10120;SDS011;5100;45.176;5.714;2022-11-20T01:07:08;2.80;;;2.53;;
10120;SDS011;5100;45.176;5.714;2022-11-20T01:09:34;2.50;;;2.30;;
10120;SDS011;5100;45.176;5.714;2022-11-20T01:12:00;4.70;;;3.00;;
10120;SDS011;5100;45.176;5.714;2022-11-20T01:14:26;2.73;;;2.53;;
10120;SDS011;5100;45.176;5.714;2022-11-20T01:16:52;2.87;;;2.57;;
10120;SDS011;5100;45.176;5.714;2022-11-20T01:19:20;2.90;;;2.57;;
10120;SDS011;5100;45.176;5.714;2022-11-20T01:21:48;2.67;;;2.43;;
10120;SDS011;5100;45.176;5.714;2022-11-20T01:24:19;5.77;;;2.73;;
10120;SDS011;5100;45.176;5.714;2022-11-20T01:26:47;2.70;;;2.50;;
10120;SDS011;5100;45.176;5.714;2022-11-20T01:29:24;3.10;;;2.30;;
10120;SDS011;5100;45.176;5.714;2022-11-20T01:31:50;3.00;;;2.17;;
10120;SDS011;5100;45.176;5.714;2022-11-20T01:34:18;4.23;;;2.57;;
10120;SDS011;5100;45.176;5.714;2022-11-20T01:36:46;2.67;;;2.40;;
10120;SDS011;5100;45.176;5.714;2022-11-20T01:39:14;2.70;;;2.00;;
10120;SDS011;5100;45.176;5.714;2022-11-20T01:41:42;2.37;;;2.03;;
10120;SDS011;5100;45.176;5.714;2022-11-20T01:47:33;2.67;;;2.20;;
10120;SDS011;5100;45.176;5.714;2022-11-20T01:50:27;2.93;;;2.10;;
10120;SDS011;5100;45.176;5.714;2022-11-20T01:52:55;2.53;;;2.00;;
10120;SDS011;5100;45.176;5.714;2022-11-20T01:55:34;3.93;;;2.17;;
10120;SDS011;5100;45.176;5.714;2022-11-20T01:58:05;2.43;;;2.20;;
10120;SDS011;5100;45.176;5.714;2022-11-20T02:00:32;4.57;;;2.13;;
10120;SDS011;5100;45.176;5.714;2022-11-20T02:03:00;3.77;;;2.33;;
10120;SDS011;5100;45.176;5.714;2022-11-20T02:05:32;3.00;;;2.10;;
10120;SDS011;5100;45.176;5.714;2022-11-20T02:08:14;2.33;;;2.13;;
10120;SDS011;5100;45.176;5.714;2022-11-20T02:10:41;3.37;;;2.53;;
10120;SDS011;5100;45.176;5.714;2022-11-20T02:13:07;2.30;;;2.10;;
10120;SDS011;5100;45.176;5.714;2022-11-20T02:15:53;2.53;;;2.30;;
10120;SDS011;5100;45.176;5.714;2022-11-20T02:18:20;2.30;;;2.10;;
10120;SDS011;5100;45.176;5.714;2022-11-20T02:20:48;3.30;;;2.40;;
10120;SDS011;5100;45.176;5.714;2022-11-20T02:23:23;2.90;;;2.30;;
10120;SDS011;5100;45.176;5.714;2022-11-20T02:25:55;3.00;;;2.47;;
10120;SDS011;5100;45.176;5.714;2022-11-20T02:28:23;2.73;;;2.50;;
10120;SDS011;5100;45.176;5.714;2022-11-20T02:30:49;3.63;;;2.60;;
10120;SDS011;5100;45.176;5.714;2022-11-20T02:33:15;3.03;;;2.50;;
10120;SDS011;5100;45.176;5.714;2022-11-20T02:35:42;3.17;;;2.87;;
10120;SDS011;5100;45.176;5.714;2022-11-20T02:38:10;2.83;;;2.60;;
10120;SDS011;5100;45.176;5.714;2022-11-20T02:40:36;2.90;;;2.70;;
10120;SDS011;5100;45.176;5.714;2022-11-20T02:43:02;3.93;;;3.10;;
10120;SDS011;5100;45.176;5.714;2022-11-20T02:45:28;3.30;;;3.00;;
10120;SDS011;5100;45.176;5.714;2022-11-20T02:47:54;4.00;;;3.60;;
10120;SDS011;5100;45.176;5.714;2022-11-20T02:50:20;3.73;;;3.30;;
10120;SDS011;5100;45.176;5.714;2022-11-20T02:52:46;3.37;;;3.07;;
10120;SDS011;5100;45.176;5.714;2022-11-20T02:55:12;4.07;;;3.50;;
10120;SDS011;5100;45.176;5.714;2022-11-20T02:57:38;4.63;;;3.57;;
10120;SDS011;5100;45.176;5.714;2022-11-20T03:00:04;4.00;;;3.60;;
10120;SDS011;5100;45.176;5.714;2022-11-20T03:02:32;4.50;;;3.80;;
10120;SDS011;5100;45.176;5.714;2022-11-20T03:04:58;4.20;;;3.50;;
10120;SDS011;5100;45.176;5.714;2022-11-20T03:07:24;4.10;;;3.70;;
10120;SDS011;5100;45.176;5.714;2022-11-20T03:09:50;4.37;;;3.23;;
10120;SDS011;5100;45.176;5.714;2022-11-20T03:12:16;3.40;;;3.10;;
10120;SDS011;5100;45.176;5.714;2022-11-20T03:14:42;3.73;;;3.27;;
10120;SDS011;5100;45.176;5.714;2022-11-20T03:17:08;3.60;;;3.30;;
10120;SDS011;5100;45.176;5.714;2022-11-20T03:19:34;3.50;;;3.20;;
10120;SDS011;5100;45.176;5.714;2022-11-20T03:22:00;3.23;;;2.93;;
10120;SDS011;5100;45.176;5.714;2022-11-20T03:24:26;5.17;;;3.63;;
10120;SDS011;5100;45.176;5.714;2022-11-20T03:26:53;7.50;;;3.90;;
10120;SDS011;5100;45.176;5.714;2022-11-20T03:29:19;3.70;;;3.40;;
10120;SDS011;5100;45.176;5.714;2022-11-20T03:31:45;3.57;;;3.27;;
10120;SDS011;5100;45.176;5.714;2022-11-20T03:34:11;3.90;;;3.60;;
10120;SDS011;5100;45.176;5.714;2022-11-20T03:36:38;4.00;;;3.37;;
10120;SDS011;5100;45.176;5.714;2022-11-20T03:39:05;4.17;;;3.70;;
10120;SDS011;5100;45.176;5.714;2022-11-20T03:41:35;4.97;;;3.60;;
10120;SDS011;5100;45.176;5.714;2022-11-20T03:44:03;4.00;;;3.60;;
10120;SDS011;5100;45.176;5.714;2022-11-20T03:46:31;3.23;;;2.93;;
10120;SDS011;5100;45.176;5.714;2022-11-20T03:48:57;3.17;;;2.90;;
10120;SDS011;5100;45.176;5.714;2022-11-20T03:53:51;3.13;;;2.80;;
10120;SDS011;5100;45.176;5.714;2022-11-20T03:56:20;3.13;;;2.57;;
10120;SDS011;5100;45.176;5.714;2022-11-20T03:58:51;4.60;;;2.70;;
10120;SDS011;5100;45.176;5.714;2022-11-20T04:01:18;3.60;;;2.60;;
10120;SDS011;5100;45.176;5.714;2022-11-20T04:03:49;4.03;;;2.87;;
10120;SDS011;5100;45.176;5.714;2022-11-20T04:06:20;3.43;;;2.83;;
10120;SDS011;5100;45.176;5.714;2022-11-20T04:08:47;2.90;;;2.70;;
10120;SDS011;5100;45.176;5.714;2022-11-20T04:13:42;3.83;;;2.93;;
10120;SDS011;5100;45.176;5.714;2022-11-20T04:16:11;3.43;;;3.13;;
10120;SDS011;5100;45.176;5.714;2022-11-20T04:18:37;3.93;;;3.20;;
10120;SDS011;5100;45.176;5.714;2022-11-20T04:21:04;3.40;;;3.07;;
10120;SDS011;5100;45.176;5.714;2022-11-20T04:23:31;3.73;;;3.10;;
10120;SDS011;5100;45.176;5.714;2022-11-20T04:26:08;2.90;;;2.70;;
10120;SDS011;5100;45.176;5.714;2022-11-20T04:28:36;4.13;;;3.00;;
10120;SDS011;5100;45.176;5.714;2022-11-20T04:31:03;3.50;;;2.90;;
10120;SDS011;5100;45.176;5.714;2022-11-20T04:33:34;3.67;;;2.90;;
10120;SDS011;5100;45.176;5.714;2022-11-20T04:36:01;3.90;;;3.03;;
10120;SDS011;5100;45.176;5.714;2022-11-20T04:38:38;3.73;;;2.70;;
10120;SDS011;5100;45.176;5.714;2022-11-20T04:41:05;2.93;;;2.60;;
10120;SDS011;5100;45.176;5.714;2022-11-20T04:43:32;2.53;;;2.27;;
10120;SDS011;5100;45.176;5.714;2022-11-20T04:45:59;2.73;;;2.53;;
10120;SDS011;5100;45.176;5.714;2022-11-20T04:48:26;3.97;;;2.67;;
10120;SDS011;5100;45.176;5.714;2022-11-20T04:50:53;3.00;;;2.60;;
10120;SDS011;5100;45.176;5.714;2022-11-20T04:53:19;2.80;;;2.60;;
10120;SDS011;5100;45.176;5.714;2022-11-20T04:55:46;3.13;;;2.87;;
10120;SDS011;5100;45.176;5.714;2022-11-20T04:58:12;3.07;;;2.30;;
10120;SDS011;5100;45.176;5.714;2022-11-20T05:00:39;3.07;;;2.73;;
10120;SDS011;5100;45.176;5.714;2022-11-20T05:03:05;2.60;;;2.40;;
10120;SDS011;5100;45.176;5.714;2022-11-20T05:05:33;2.50;;;2.30;;
10120;SDS011;5100;45.176;5.714;2022-11-20T05:08:00;5.50;;;2.80;;
10120;SDS011;5100;45.176;5.714;2022-11-20T05:10:26;2.67;;;2.47;;
10120;SDS011;5100;45.176;5.714;2022-11-20T05:12:52;3.00;;;2.67;;
10120;SDS011;5100;45.176;5.714;2022-11-20T05:15:19;2.53;;;2.33;;
10120;SDS011;5100;45.176;5.714;2022-11-20T05:17:48;3.33;;;2.70;;
10120;SDS011;5100;45.176;5.714;2022-11-20T05:20:15;2.93;;;2.50;;
10120;SDS011;5100;45.176;5.714;2022-11-20T05:22:42;3.20;;;2.60;;
10120;SDS011;5100;45.176;5.714;2022-11-20T05:25:08;4.97;;;2.47;;
10120;SDS011;5100;45.176;5.714;2022-11-20T05:27:34;3.27;;;2.30;;
10120;SDS011;5100;45.176;5.714;2022-11-20T05:30:00;2.90;;;2.60;;
10120;SDS011;5100;45.176;5.714;2022-11-20T05:32:26;2.93;;;2.60;;
10120;SDS011;5100;45.176;5.714;2022-11-20T05:34:52;2.67;;;2.47;;
10120;SDS011;5100;45.176;5.714;2022-11-20T05:37:19;3.23;;;2.67;;
10120;SDS011;5100;45.176;5.714;2022-11-20T05:39:44;2.87;;;2.67;;
10120;SDS011;5100;45.176;5.714;2022-11-20T05:42:10;4.17;;;2.47;;
10120;SDS011;5100;45.176;5.714;2022-11-20T05:44:55;6.37;;;2.60;;
10120;SDS011;5100;45.176;5.714;2022-11-20T05:47:26;2.50;;;2.30;;
10120;SDS011;5100;45.176;5.714;2022-11-20T05:49:52;2.67;;;2.43;;
10120;SDS011;5100;45.176;5.714;2022-11-20T05:52:19;3.67;;;3.07;;
10120;SDS011;5100;45.176;5.714;2022-11-20T05:54:45;3.80;;;2.77;;
10120;SDS011;5100;45.176;5.714;2022-11-20T05:57:11;2.57;;;2.30;;
10120;SDS011;5100;45.176;5.714;2022-11-20T05:59:37;2.77;;;2.50;;
10120;SDS011;5100;45.176;5.714;2022-11-20T06:02:03;4.33;;;2.90;;
10120;SDS011;5100;45.176;5.714;2022-11-20T06:04:30;3.30;;;3.00;;
10120;SDS011;5100;45.176;5.714;2022-11-20T06:06:56;3.33;;;2.70;;
10120;SDS011;5100;45.176;5.714;2022-11-20T06:09:22;3.83;;;2.83;;
10120;SDS011;5100;45.176;5.714;2022-11-20T06:11:49;4.13;;;2.87;;
10120;SDS011;5100;45.176;5.714;2022-11-20T06:14:15;3.20;;;2.90;;
10120;SDS011;5100;45.176;5.714;2022-11-20T06:16:41;3.07;;;2.77;;
10120;SDS011;5100;45.176;5.714;2022-11-20T06:19:10;4.37;;;2.60;;
10120;SDS011;5100;45.176;5.714;2022-11-20T06:21:36;4.57;;;2.70;;
10120;SDS011;5100;45.176;5.714;2022-11-20T06:24:05;4.13;;;2.60;;
10120;SDS011;5100;45.176;5.714;2022-11-20T06:26:32;3.00;;;2.70;;
10120;SDS011;5100;45.176;5.714;2022-11-20T06:29:01;3.17;;;2.77;;
10120;SDS011;5100;45.176;5.714;2022-11-20T06:31:27;3.57;;;2.40;;
10120;SDS011;5100;45.176;5.714;2022-11-20T06:33:54;2.60;;;2.40;;
10120;SDS011;5100;45.176;5.714;2022-11-20T06:36:21;3.27;;;2.53;;
10120;SDS011;5100;45.176;5.714;2022-11-20T06:38:48;3.73;;;2.60;;
10120;SDS011;5100;45.176;5.714;2022-11-20T06:41:16;3.60;;;2.80;;
10120;SDS011;5100;45.176;5.714;2022-11-20T06:43:46;3.30;;;2.60;;
10120;SDS011;5100;45.176;5.714;2022-11-20T06:46:13;4.37;;;2.70;;
10120;SDS011;5100;45.176;5.714;2022-11-20T06:48:40;2.80;;;2.60;;
10120;SDS011;5100;45.176;5.714;2022-11-20T06:51:07;3.00;;;2.67;;
10120;SDS011;5100;45.176;5.714;2022-11-20T06:53:33;3.13;;;2.83;;
10120;SDS011;5100;45.176;5.714;2022-11-20T06:56:01;3.77;;;2.70;;
10120;SDS011;5100;45.176;5.714;2022-11-20T06:58:28;3.10;;;2.80;;
10120;SDS011;5100;45.176;5.714;2022-11-20T07:00:59;4.30;;;2.83;;
10120;SDS011;5100;45.176;5.714;2022-11-20T07:03:27;2.80;;;2.60;;
10120;SDS011;5100;45.176;5.714;2022-11-20T07:05:56;3.37;;;3.00;;
10120;SDS011;5100;45.176;5.714;2022-11-20T07:08:24;2.80;;;2.60;;
10120;SDS011;5100;45.176;5.714;2022-11-20T07:10:50;4.53;;;3.10;;
10120;SDS011;5100;45.176;5.714;2022-11-20T07:13:17;3.60;;;2.83;;
10120;SDS011;5100;45.176;5.714;2022-11-20T07:15:43;4.00;;;3.20;;
10120;SDS011;5100;45.176;5.714;2022-11-20T07:18:09;4.43;;;3.20;;
10120;SDS011;5100;45.176;5.714;2022-11-20T07:20:35;3.47;;;3.00;;
10120;SDS011;5100;45.176;5.714;2022-11-20T07:23:01;4.00;;;3.33;;
10120;SDS011;5100;45.176;5.714;2022-11-20T07:25:27;4.33;;;2.80;;
10120;SDS011;5100;45.176;5.714;2022-11-20T07:27:57;3.83;;;2.80;;
10120;SDS011;5100;45.176;5.714;2022-11-20T07:30:23;5.60;;;3.00;;
10120;SDS011;5100;45.176;5.714;2022-11-20T07:32:50;3.50;;;2.90;;
10120;SDS011;5100;45.176;5.714;2022-11-20T07:35:18;5.07;;;3.10;;
10120;SDS011;5100;45.176;5.714;2022-11-20T07:37:44;4.33;;;2.90;;
10120;SDS011;5100;45.176;5.714;2022-11-20T07:40:14;3.83;;;3.20;;
10120;SDS011;5100;45.176;5.714;2022-11-20T07:42:47;3.53;;;3.23;;
10120;SDS011;5100;45.176;5.714;2022-11-20T07:45:18;3.30;;;3.00;;
10120;SDS011;5100;45.176;5.714;2022-11-20T07:47:45;4.17;;;3.20;;
10120;SDS011;5100;45.176;5.714;2022-11-20T07:50:11;3.87;;;3.30;;
10120;SDS011;5100;45.176;5.714;2022-11-20T07:52:38;4.47;;;3.03;;
10120;SDS011;5100;45.176;5.714;2022-11-20T07:55:04;4.67;;;3.50;;
10120;SDS011;5100;45.176;5.714;2022-11-20T07:57:30;3.80;;;3.13;;
10120;SDS011;5100;45.176;5.714;2022-11-20T07:59:56;3.90;;;3.00;;
10120;SDS011;5100;45.176;5.714;2022-11-20T08:02:22;4.47;;;2.90;;
10120;SDS011;5100;45.176;5.714;2022-11-20T08:04:48;4.87;;;3.23;;
10120;SDS011;5100;45.176;5.714;2022-11-20T08:07:14;3.93;;;3.10;;
10120;SDS011;5100;45.176;5.714;2022-11-20T08:09:40;3.20;;;2.90;;
10120;SDS011;5100;45.176;5.714;2022-11-20T08:12:06;3.53;;;2.90;;
10120;SDS011;5100;45.176;5.714;2022-11-20T08:14:51;3.43;;;3.07;;
10120;SDS011;5100;45.176;5.714;2022-11-20T08:17:18;3.77;;;3.00;;
10120;SDS011;5100;45.176;5.714;2022-11-20T08:19:44;5.33;;;3.23;;
10120;SDS011;5100;45.176;5.714;2022-11-20T08:22:10;3.70;;;3.40;;
10120;SDS011;5100;45.176;5.714;2022-11-20T08:24:36;2.87;;;2.60;;
10120;SDS011;5100;45.176;5.714;2022-11-20T08:27:02;3.50;;;3.13;;
10120;SDS011;5100;45.176;5.714;2022-11-20T08:29:28;3.87;;;2.97;;
10120;SDS011;5100;45.176;5.714;2022-11-20T08:31:54;3.37;;;3.00;;
10120;SDS011;5100;45.176;5.714;2022-11-20T08:34:20;4.70;;;2.90;;
10120;SDS011;5100;45.176;5.714;2022-11-20T08:36:46;3.23;;;2.90;;
10120;SDS011;5100;45.176;5.714;2022-11-20T08:39:13;3.03;;;2.77;;
10120;SDS011;5100;45.176;5.714;2022-11-20T08:41:39;5.47;;;3.30;;
10120;SDS011;5100;45.176;5.714;2022-11-20T08:44:06;3.40;;;3.10;;
10120;SDS011;5100;45.176;5.714;2022-11-20T08:46:37;3.23;;;2.93;;
10120;SDS011;5100;45.176;5.714;2022-11-20T08:49:07;4.70;;;2.83;;
10120;SDS011;5100;45.176;5.714;2022-11-20T08:51:35;3.73;;;3.37;;
10120;SDS011;5100;45.176;5.714;2022-11-20T08:54:02;3.53;;;3.23;;
10120;SDS011;5100;45.176;5.714;2022-11-20T08:56:28;5.57;;;3.27;;
10120;SDS011;5100;45.176;5.714;2022-11-20T08:58:55;3.43;;;3.17;;
10120;SDS011;5100;45.176;5.714;2022-11-20T09:01:21;5.00;;;3.70;;
10120;SDS011;5100;45.176;5.714;2022-11-20T09:03:48;3.93;;;3.20;;
10120;SDS011;5100;45.176;5.714;2022-11-20T09:06:15;3.50;;;3.03;;
10120;SDS011;5100;45.176;5.714;2022-11-20T09:08:42;3.97;;;3.67;;
10120;SDS011;5100;45.176;5.714;2022-11-20T09:11:08;3.83;;;3.50;;
10120;SDS011;5100;45.176;5.714;2022-11-20T09:13:35;4.07;;;3.43;;
10120;SDS011;5100;45.176;5.714;2022-11-20T09:16:03;3.70;;;3.40;;
10120;SDS011;5100;45.176;5.714;2022-11-20T09:18:31;3.73;;;3.37;;
10120;SDS011;5100;45.176;5.714;2022-11-20T09:20:59;4.77;;;3.37;;
10120;SDS011;5100;45.176;5.714;2022-11-20T09:23:27;5.80;;;3.97;;
10120;SDS011;5100;45.176;5.714;2022-11-20T09:25:56;4.37;;;3.53;;
10120;SDS011;5100;45.176;5.714;2022-11-20T09:28:25;6.23;;;4.10;;
10120;SDS011;5100;45.176;5.714;2022-11-20T09:30:51;3.87;;;3.53;;
10120;SDS011;5100;45.176;5.714;2022-11-20T09:33:17;3.80;;;3.47;;
10120;SDS011;5100;45.176;5.714;2022-11-20T09:35:44;3.60;;;2.87;;
10120;SDS011;5100;45.176;5.714;2022-11-20T09:38:10;3.77;;;2.90;;
10120;SDS011;5100;45.176;5.714;2022-11-20T09:40:38;2.80;;;2.60;;
10120;SDS011;5100;45.176;5.714;2022-11-20T09:45:53;2.60;;;2.40;;
10120;SDS011;5100;45.176;5.714;2022-11-20T09:54:31;3.10;;;2.80;;
10120;SDS011;5100;45.176;5.714;2022-11-20T09:57:02;3.13;;;2.50;;
10120;SDS011;5100;45.176;5.714;2022-11-20T09:59:41;3.30;;;3.00;;
10120;SDS011;5100;45.176;5.714;2022-11-20T10:04:53;2.90;;;2.60;;
10120;SDS011;5100;45.176;5.714;2022-11-20T10:07:41;2.93;;;2.43;;
10120;SDS011;5100;45.176;5.714;2022-11-20T10:10:14;3.07;;;2.70;;
10120;SDS011;5100;45.176;5.714;2022-11-20T10:13:25;2.70;;;2.40;;
10120;SDS011;5100;45.176;5.714;2022-11-20T10:16:18;2.57;;;2.37;;
10120;SDS011;5100;45.176;5.714;2022-11-20T10:19:11;2.30;;;2.10;;
10120;SDS011;5100;45.176;5.714;2022-11-20T10:24:41;2.53;;;2.00;;
10120;SDS011;5100;45.176;5.714;2022-11-20T10:27:15;2.03;;;1.70;;
10120;SDS011;5100;45.176;5.714;2022-11-20T10:29:53;2.30;;;2.10;;
10120;SDS011;5100;45.176;5.714;2022-11-20T10:32:35;2.17;;;1.90;;
10120;SDS011;5100;45.176;5.714;2022-11-20T10:37:36;2.30;;;1.93;;
10120;SDS011;5100;45.176;5.714;2022-11-20T10:43:21;2.13;;;1.90;;
10120;SDS011;5100;45.176;5.714;2022-11-20T10:46:03;2.03;;;1.90;;
10120;SDS011;5100;45.176;5.714;2022-11-20T10:48:36;2.47;;;2.27;;
10120;SDS011;5100;45.176;5.714;2022-11-20T11:01:42;2.20;;;2.00;;
10120;SDS011;5100;45.176;5.714;2022-11-20T11:04:28;2.10;;;1.90;;
10120;SDS011;5100;45.176;5.714;2022-11-20T11:07:08;2.33;;;2.00;;
10120;SDS011;5100;45.176;5.714;2022-11-20T11:09:41;2.93;;;2.00;;
10120;SDS011;5100;45.176;5.714;2022-11-20T11:12:12;3.50;;;1.83;;
10120;SDS011;5100;45.176;5.714;2022-11-20T11:14:45;2.30;;;2.10;;
10120;SDS011;5100;45.176;5.714;2022-11-20T11:17:20;2.70;;;2.00;;
10120;SDS011;5100;45.176;5.714;2022-11-20T11:20:05;2.43;;;2.00;;
10120;SDS011;5100;45.176;5.714;2022-11-20T11:22:49;2.63;;;2.00;;
10120;SDS011;5100;45.176;5.714;2022-11-20T11:25:27;2.30;;;2.10;;
10120;SDS011;5100;45.176;5.714;2022-11-20T11:28:00;2.47;;;2.03;;
10120;SDS011;5100;45.176;5.714;2022-11-20T11:30:44;4.07;;;1.87;;
10120;SDS011;5100;45.176;5.714;2022-11-20T11:35:52;5.43;;;1.50;;
10120;SDS011;5100;45.176;5.714;2022-11-20T11:41:20;1.77;;;1.67;;
10120;SDS011;5100;45.176;5.714;2022-11-20T11:43:55;1.90;;;1.70;;
10120;SDS011;5100;45.176;5.714;2022-11-20T11:46:54;2.17;;;1.70;;
10120;SDS011;5100;45.176;5.714;2022-11-20T11:49:23;1.73;;;1.60;;
10120;SDS011;5100;45.176;5.714;2022-11-20T11:54:38;1.93;;;1.73;;
10120;SDS011;5100;45.176;5.714;2022-11-20T12:00:03;2.43;;;2.10;;
10120;SDS011;5100;45.176;5.714;2022-11-20T12:08:15;2.67;;;1.80;;
10120;SDS011;5100;45.176;5.714;2022-11-20T12:10:48;2.40;;;1.83;;
10120;SDS011;5100;45.176;5.714;2022-11-20T12:16:03;2.97;;;1.73;;
10120;SDS011;5100;45.176;5.714;2022-11-20T12:18:29;1.87;;;1.77;;
10120;SDS011;5100;45.176;5.714;2022-11-20T12:23:44;2.40;;;1.60;;
10120;SDS011;5100;45.176;5.714;2022-11-20T12:26:39;1.77;;;1.63;;
10120;SDS011;5100;45.176;5.714;2022-11-20T12:29:32;2.57;;;1.70;;
10120;SDS011;5100;45.176;5.714;2022-11-20T12:39:54;1.80;;;1.70;;
10120;SDS011;5100;45.176;5.714;2022-11-20T12:42:39;4.73;;;3.57;;
10120;SDS011;5100;45.176;5.714;2022-11-20T12:48:19;1.93;;;1.70;;
10120;SDS011;5100;45.176;5.714;2022-11-20T13:02:43;1.80;;;1.30;;
10120;SDS011;5100;45.176;5.714;2022-11-20T13:05:24;2.00;;;1.80;;
10120;SDS011;5100;45.176;5.714;2022-11-20T13:08:08;2.13;;;1.93;;
10120;SDS011;5100;45.176;5.714;2022-11-20T13:19:25;3.33;;;1.80;;
10120;SDS011;5100;45.176;5.714;2022-11-20T13:21:52;2.50;;;2.00;;
10120;SDS011;5100;45.176;5.714;2022-11-20T13:26:44;1.70;;;1.60;;
10120;SDS011;5100;45.176;5.714;2022-11-20T13:29:15;1.73;;;1.60;;
10120;SDS011;5100;45.176;5.714;2022-11-20T13:31:46;2.77;;;1.90;;
10120;SDS011;5100;45.176;5.714;2022-11-20T13:34:14;3.80;;;2.10;;
10120;SDS011;5100;45.176;5.714;2022-11-20T13:36:50;3.90;;;2.17;;
10120;SDS011;5100;45.176;5.714;2022-11-20T13:39:31;2.23;;;1.83;;
10120;SDS011;5100;45.176;5.714;2022-11-20T13:42:03;2.07;;;1.87;;
10120;SDS011;5100;45.176;5.714;2022-11-20T13:44:53;2.30;;;2.10;;
10120;SDS011;5100;45.176;5.714;2022-11-20T13:47:22;2.00;;;1.80;;
10120;SDS011;5100;45.176;5.714;2022-11-20T13:49:51;1.87;;;1.53;;
10120;SDS011;5100;45.176;5.714;2022-11-20T13:55:12;1.50;;;1.40;;
10120;SDS011;5100;45.176;5.714;2022-11-20T14:00:54;1.83;;;1.70;;
10120;SDS011;5100;45.176;5.714;2022-11-20T14:03:24;1.70;;;1.60;;
10120;SDS011;5100;45.176;5.714;2022-11-20T14:05:52;2.23;;;1.70;;
10120;SDS011;5100;45.176;5.714;2022-11-20T14:11:16;1.97;;;1.60;;
10120;SDS011;5100;45.176;5.714;2022-11-20T14:16:27;2.83;;;1.73;;
10120;SDS011;5100;45.176;5.714;2022-11-20T14:18:56;1.93;;;1.57;;
10120;SDS011;5100;45.176;5.714;2022-11-20T14:21:27;1.50;;;1.40;;
10120;SDS011;5100;45.176;5.714;2022-11-20T14:24:09;3.17;;;1.57;;
10120;SDS011;5100;45.176;5.714;2022-11-20T14:26:38;2.53;;;1.80;;
10120;SDS011;5100;45.176;5.714;2022-11-20T14:29:14;1.40;;;1.30;;
10120;SDS011;5100;45.176;5.714;2022-11-20T14:31:47;1.63;;;1.53;;
10120;SDS011;5100;45.176;5.714;2022-11-20T14:34:27;2.80;;;1.80;;
10120;SDS011;5100;45.176;5.714;2022-11-20T14:37:00;1.47;;;1.37;;
10120;SDS011;5100;45.176;5.714;2022-11-20T14:39:35;1.47;;;1.37;;
10120;SDS011;5100;45.176;5.714;2022-11-20T14:42:03;1.50;;;1.40;;
10120;SDS011;5100;45.176;5.714;2022-11-20T14:44:43;2.30;;;1.60;;
10120;SDS011;5100;45.176;5.714;2022-11-20T14:47:15;2.37;;;1.50;;
10120;SDS011;5100;45.176;5.714;2022-11-20T14:50:19;1.60;;;1.50;;
10120;SDS011;5100;45.176;5.714;2022-11-20T14:52:57;1.40;;;1.30;;
10120;SDS011;5100;45.176;5.714;2022-11-20T14:55:28;2.20;;;1.50;;
10120;SDS011;5100;45.176;5.714;2022-11-20T14:58:06;1.63;;;1.50;;
10120;SDS011;5100;45.176;5.714;2022-11-20T15:00:56;1.33;;;1.23;;
10120;SDS011;5100;45.176;5.714;2022-11-20T15:03:30;1.87;;;1.57;;
10120;SDS011;5100;45.176;5.714;2022-11-20T15:05:57;1.93;;;1.33;;
10120;SDS011;5100;45.176;5.714;2022-11-20T15:08:24;2.30;;;1.63;;
10120;SDS011;5100;45.176;5.714;2022-11-20T15:10:51;1.53;;;1.43;;
10120;SDS011;5100;45.176;5.714;2022-11-20T15:13:25;2.43;;;1.50;;
10120;SDS011;5100;45.176;5.714;2022-11-20T15:15:58;1.80;;;1.70;;
10120;SDS011;5100;45.176;5.714;2022-11-20T15:18:30;2.57;;;1.60;;
10120;SDS011;5100;45.176;5.714;2022-11-20T15:21:00;1.90;;;1.80;;
10120;SDS011;5100;45.176;5.714;2022-11-20T15:23:28;2.70;;;2.03;;
10120;SDS011;5100;45.176;5.714;2022-11-20T15:25:55;3.07;;;2.13;;
10120;SDS011;5100;45.176;5.714;2022-11-20T15:30:59;2.40;;;2.20;;
10120;SDS011;5100;45.176;5.714;2022-11-20T15:33:25;2.63;;;2.43;;
10120;SDS011;5100;45.176;5.714;2022-11-20T15:35:51;4.33;;;2.40;;
10120;SDS011;5100;45.176;5.714;2022-11-20T15:38:17;2.10;;;1.90;;
10120;SDS011;5100;45.176;5.714;2022-11-20T15:40:43;2.43;;;1.93;;
10120;SDS011;5100;45.176;5.714;2022-11-20T15:43:09;2.93;;;2.10;;
10120;SDS011;5100;45.176;5.714;2022-11-20T15:45:48;2.13;;;1.93;;
10120;SDS011;5100;45.176;5.714;2022-11-20T15:48:21;2.90;;;2.33;;
10120;SDS011;5100;45.176;5.714;2022-11-20T15:50:58;3.83;;;2.70;;
10120;SDS011;5100;45.176;5.714;2022-11-20T15:53:35;3.40;;;2.87;;
10120;SDS011;5100;45.176;5.714;2022-11-20T15:56:02;3.54;;;2.81;;
10120;SDS011;5100;45.176;5.714;2022-11-20T15:58:29;3.07;;;2.70;;
10120;SDS011;5100;45.176;5.714;2022-11-20T16:00:55;3.77;;;3.00;;
10120;SDS011;5100;45.176;5.714;2022-11-20T16:03:21;3.10;;;2.80;;
10120;SDS011;5100;45.176;5.714;2022-11-20T16:05:48;2.67;;;2.47;;
10120;SDS011;5100;45.176;5.714;2022-11-20T16:08:14;2.60;;;2.40;;
10120;SDS011;5100;45.176;5.714;2022-11-20T16:10:40;3.60;;;2.60;;
10120;SDS011;5100;45.176;5.714;2022-11-20T16:13:13;2.97;;;2.30;;
10120;SDS011;5100;45.176;5.714;2022-11-20T16:16:00;3.10;;;2.30;;
10120;SDS011;5100;45.176;5.714;2022-11-20T16:18:32;2.80;;;2.50;;
10120;SDS011;5100;45.176;5.714;2022-11-20T16:20:58;2.43;;;2.13;;
10120;SDS011;5100;45.176;5.714;2022-11-20T16:23:24;2.60;;;2.20;;
10120;SDS011;5100;45.176;5.714;2022-11-20T16:25:50;1.97;;;1.83;;
10120;SDS011;5100;45.176;5.714;2022-11-20T16:28:17;2.37;;;2.17;;
10120;SDS011;5100;45.176;5.714;2022-11-20T16:30:43;2.97;;;2.40;;
10120;SDS011;5100;45.176;5.714;2022-11-20T16:33:10;3.17;;;2.87;;
10120;SDS011;5100;45.176;5.714;2022-11-20T16:35:38;6.13;;;5.63;;
10120;SDS011;5100;45.176;5.714;2022-11-20T16:38:05;3.87;;;3.47;;
10120;SDS011;5100;45.176;5.714;2022-11-20T16:40:31;3.67;;;3.13;;
10120;SDS011;5100;45.176;5.714;2022-11-20T16:42:57;2.80;;;2.60;;
10120;SDS011;5100;45.176;5.714;2022-11-20T16:45:31;3.97;;;2.67;;
10120;SDS011;5100;45.176;5.714;2022-11-20T16:47:57;2.50;;;2.30;;
10120;SDS011;5100;45.176;5.714;2022-11-20T16:50:23;3.53;;;2.80;;
10120;SDS011;5100;45.176;5.714;2022-11-20T16:52:49;2.97;;;2.67;;
10120;SDS011;5100;45.176;5.714;2022-11-20T16:55:16;3.97;;;3.57;;
10120;SDS011;5100;45.176;5.714;2022-11-20T16:57:41;6.73;;;6.03;;
10120;SDS011;5100;45.176;5.714;2022-11-20T17:00:08;7.20;;;6.20;;
10120;SDS011;5100;45.176;5.714;2022-11-20T17:02:34;6.00;;;5.23;;
10120;SDS011;5100;45.176;5.714;2022-11-20T17:05:02;8.20;;;6.67;;